createdAt,value
2019-04-26T00:00:35.448Z,1.50
2019-04-26T00:03:09.347Z,1.90
2019-04-26T00:05:39.094Z,1.30
2019-04-26T00:08:09.270Z,1.83
2019-04-26T00:10:52.856Z,2.40
2019-04-26T00:16:19.549Z,2.10
2019-04-26T00:18:49.106Z,1.37
2019-04-26T00:21:18.341Z,1.53
2019-04-26T00:23:47.327Z,1.90
2019-04-26T00:26:16.358Z,1.27
2019-04-26T00:28:44.986Z,2.30
2019-04-26T00:31:13.671Z,1.80
2019-04-26T00:33:42.320Z,2.13
2019-04-26T00:36:11.012Z,2.50
2019-04-26T00:38:40.390Z,1.47
2019-04-26T00:41:09.958Z,1.40
2019-04-26T00:43:38.671Z,2.00
2019-04-26T00:46:07.974Z,3.10
2019-04-26T00:48:38.275Z,1.70
2019-04-26T00:51:07.490Z,2.40
2019-04-26T00:53:37.566Z,2.10
2019-04-26T00:56:07.208Z,1.83
2019-04-26T00:58:35.872Z,1.67
2019-04-26T01:01:04.539Z,1.47
2019-04-26T01:03:33.148Z,1.53
2019-04-26T01:06:03.639Z,1.57
2019-04-26T01:08:32.301Z,1.47
2019-04-26T01:11:00.928Z,1.73
2019-04-26T01:13:29.751Z,1.87
2019-04-26T01:15:58.502Z,2.37
2019-04-26T01:18:27.253Z,1.93
2019-04-26T01:20:57.218Z,1.93
2019-04-26T01:23:28.224Z,1.57
2019-04-26T01:26:02.010Z,1.83
2019-04-26T01:28:39.813Z,2.37
2019-04-26T01:31:08.703Z,2.37
2019-04-26T01:33:38.905Z,2.60
2019-04-26T01:36:13.216Z,2.10
2019-04-26T01:38:38.759Z,1.70
2019-04-26T01:41:09.623Z,1.90
2019-04-26T01:43:40.320Z,2.63
2019-04-26T01:46:13.734Z,1.87
2019-04-26T01:49:06.002Z,1.53
2019-04-26T01:51:37.714Z,2.10
2019-04-26T01:54:07.331Z,2.13
2019-04-26T01:56:37.218Z,1.73
2019-04-26T01:59:08.153Z,1.87
2019-04-26T02:01:42.934Z,2.50
2019-04-26T02:04:12.395Z,2.50
2019-04-26T02:06:41.079Z,2.10
2019-04-26T02:09:10.914Z,2.43
2019-04-26T02:11:40.687Z,1.93
2019-04-26T02:14:09.403Z,2.20
2019-04-26T02:16:38.754Z,1.67
2019-04-26T02:19:07.402Z,2.03
2019-04-26T02:21:37.617Z,1.57
2019-04-26T02:24:10.862Z,2.10
2019-04-26T02:26:42.507Z,3.37
2019-04-26T02:29:20.414Z,1.83
2019-04-26T02:31:54.177Z,2.47
2019-04-26T02:34:22.949Z,2.60
2019-04-26T02:36:57.742Z,2.50
2019-04-26T02:39:34.091Z,12.07
2019-04-26T02:42:05.149Z,15.87
2019-04-26T02:44:37.154Z,16.73
2019-04-26T02:47:30.464Z,7.60
2019-04-26T02:50:08.111Z,6.77
2019-04-26T02:52:45.513Z,3.90
2019-04-26T02:55:36.853Z,3.30
2019-04-26T02:58:02.576Z,2.97
2019-04-26T03:00:32.184Z,2.10
2019-04-26T03:03:04.622Z,2.23
2019-04-26T03:05:37.470Z,2.50
2019-04-26T03:08:08.899Z,2.20
2019-04-26T03:10:40.634Z,2.70
2019-04-26T03:13:12.972Z,2.33
2019-04-26T03:15:52.337Z,3.60
2019-04-26T03:18:41.533Z,2.40
2019-04-26T03:21:40.490Z,3.70
2019-04-26T03:24:37.232Z,4.03
2019-04-26T03:27:18.945Z,2.60
2019-04-26T03:30:19.309Z,3.20
2019-04-26T03:32:55.713Z,3.27
2019-04-26T03:35:57.071Z,1.93
2019-04-26T03:38:38.266Z,3.20
2019-04-26T03:41:21.707Z,2.70
2019-04-26T03:43:59.455Z,2.40
2019-04-26T03:46:33.589Z,2.20
2019-04-26T03:49:06.735Z,3.37
2019-04-26T03:51:39.610Z,2.07
2019-04-26T03:54:24.086Z,2.20
2019-04-26T03:56:59.990Z,3.90
2019-04-26T03:59:33.282Z,3.00
2019-04-26T04:02:11.823Z,2.80
2019-04-26T04:04:45.363Z,2.40
2019-04-26T04:07:17.167Z,2.90
2019-04-26T04:09:48.889Z,3.30
2019-04-26T04:12:32.429Z,2.97
2019-04-26T04:15:37.938Z,3.80
2019-04-26T04:18:10.814Z,2.77
2019-04-26T04:20:53.332Z,2.90
2019-04-26T04:23:33.994Z,2.00
2019-04-26T04:26:05.696Z,3.83
2019-04-26T04:28:49.967Z,2.57
2019-04-26T04:31:28.194Z,2.67
2019-04-26T04:34:18.943Z,4.40
2019-04-26T04:36:51.382Z,2.23
2019-04-26T04:39:28.828Z,2.33
2019-04-26T04:42:23.094Z,3.40
2019-04-26T04:45:23.510Z,4.53
2019-04-26T04:48:19.016Z,2.77
2019-04-26T04:51:13.310Z,3.57
2019-04-26T04:53:54.210Z,3.57
2019-04-26T04:56:54.513Z,2.47
2019-04-26T04:59:28.799Z,3.20
2019-04-26T05:02:17.414Z,2.90
2019-04-26T05:05:23.454Z,6.50
2019-04-26T05:08:07.085Z,3.70
2019-04-26T05:10:42.059Z,4.30
2019-04-26T05:13:28.202Z,4.73
2019-04-26T05:16:32.979Z,2.97
2019-04-26T05:19:27.333Z,3.53
2019-04-26T05:22:04.981Z,3.23
2019-04-26T05:24:55.359Z,3.70
2019-04-26T05:27:48.480Z,3.77
2019-04-26T05:30:36.581Z,4.00
2019-04-26T05:33:17.429Z,3.60
2019-04-26T05:36:10.385Z,3.43
2019-04-26T05:38:42.206Z,3.60
2019-04-26T05:41:49.610Z,4.10
2019-04-26T05:44:45.536Z,2.80
2019-04-26T05:47:33.400Z,4.80
2019-04-26T05:50:21.657Z,3.57
2019-04-26T05:53:44.581Z,5.63
2019-04-26T05:56:20.642Z,3.57
2019-04-26T05:59:10.252Z,3.70
2019-04-26T06:01:52.053Z,3.03
2019-04-26T06:04:26.074Z,3.80
2019-04-26T06:07:36.979Z,4.10
2019-04-26T06:10:19.085Z,4.10
2019-04-26T06:13:20.203Z,3.17
2019-04-26T06:16:22.002Z,3.90
2019-04-26T06:19:16.708Z,3.50
2019-04-26T06:22:05.003Z,3.60
2019-04-26T06:24:36.713Z,3.97
2019-04-26T06:27:35.498Z,4.30
2019-04-26T06:30:12.814Z,3.60
2019-04-26T06:32:56.155Z,11.87
2019-04-26T06:35:21.499Z,7.10
2019-04-26T06:38:15.663Z,4.17
2019-04-26T06:41:02.655Z,5.80
2019-04-26T06:43:35.616Z,9.30
2019-04-26T06:46:11.759Z,8.20
2019-04-26T06:48:49.546Z,6.30
2019-04-26T06:51:25.183Z,5.60
2019-04-26T06:54:19.540Z,5.60
2019-04-26T06:57:14.880Z,5.40
2019-04-26T06:59:51.635Z,4.97
2019-04-26T07:02:38.227Z,4.73
2019-04-26T07:05:22.080Z,5.57
2019-04-26T07:08:19.829Z,3.37
2019-04-26T07:11:11.749Z,3.90
2019-04-26T07:14:06.870Z,3.90
2019-04-26T07:16:54.973Z,3.90
2019-04-26T07:20:04.288Z,5.57
2019-04-26T07:23:10.834Z,4.43
2019-04-26T07:25:53.118Z,3.50
2019-04-26T07:28:46.682Z,5.30
2019-04-26T07:31:29.700Z,4.40
2019-04-26T07:34:09.463Z,3.80
2019-04-26T07:36:53.164Z,3.40
2019-04-26T07:39:38.217Z,4.03
2019-04-26T07:42:35.514Z,3.80
2019-04-26T07:45:25.071Z,4.03
2019-04-26T07:48:19.288Z,4.10
2019-04-26T07:51:16.659Z,4.23
2019-04-26T07:53:58.301Z,3.80
2019-04-26T07:56:42.422Z,3.53
2019-04-26T07:59:30.896Z,3.77
2019-04-26T08:02:29.282Z,3.70
2019-04-26T08:05:09.431Z,4.03
2019-04-26T08:07:43.954Z,4.20
2019-04-26T08:10:20.216Z,5.83
2019-04-26T08:12:55.006Z,4.60
2019-04-26T08:15:40.357Z,4.00
2019-04-26T08:18:11.756Z,4.10
2019-04-26T08:20:45.049Z,3.80
2019-04-26T08:23:37.333Z,5.67
2019-04-26T08:25:48.722Z,4.63
2019-04-26T08:28:19.040Z,4.27
2019-04-26T08:30:50.273Z,3.87
2019-04-26T08:33:23.672Z,4.90
2019-04-26T08:35:54.102Z,4.50
2019-04-26T08:38:23.350Z,4.77
2019-04-26T08:40:53.166Z,3.93
2019-04-26T08:43:33.124Z,4.00
2019-04-26T08:46:23.737Z,3.90
2019-04-26T08:48:58.128Z,4.40
2019-04-26T08:51:28.815Z,4.70
2019-04-26T08:53:59.976Z,3.90
2019-04-26T08:56:43.335Z,3.97
2019-04-26T08:59:28.159Z,4.50
2019-04-26T09:02:05.047Z,4.60
2019-04-26T09:04:53.250Z,7.07
2019-04-26T09:07:31.580Z,4.83
2019-04-26T09:10:10.788Z,4.83
2019-04-26T09:12:34.568Z,4.73
2019-04-26T09:15:10.730Z,5.27
2019-04-26T09:17:39.359Z,5.00
2019-04-26T09:20:09.616Z,5.93
2019-04-26T09:22:43.255Z,4.97
2019-04-26T09:25:13.571Z,4.60
2019-04-26T09:27:53.614Z,5.27
2019-04-26T09:30:34.003Z,4.97
2019-04-26T09:33:03.034Z,4.93
2019-04-26T09:35:32.827Z,5.07
2019-04-26T09:38:02.359Z,5.63
2019-04-26T09:40:32.594Z,4.20
2019-04-26T09:43:16.691Z,5.40
2019-04-26T09:46:03.204Z,4.97
2019-04-26T09:48:33.482Z,4.50
2019-04-26T09:51:03.306Z,5.57
2019-04-26T09:53:31.960Z,6.73
2019-04-26T09:56:00.712Z,5.10
2019-04-26T09:58:30.823Z,4.53
2019-04-26T10:00:59.964Z,4.13
2019-04-26T10:03:28.600Z,5.10
2019-04-26T10:05:57.310Z,4.50
2019-04-26T10:08:26.040Z,4.40
2019-04-26T10:10:57.296Z,4.77
2019-04-26T10:13:29.817Z,5.50
2019-04-26T10:16:02.543Z,5.70
2019-04-26T10:18:31.065Z,4.67
2019-04-26T10:21:01.472Z,4.70
2019-04-26T10:23:30.168Z,6.40
2019-04-26T10:25:58.835Z,5.00
2019-04-26T10:28:27.575Z,5.97
2019-04-26T10:30:56.277Z,5.20
2019-04-26T10:33:28.826Z,4.43
2019-04-26T10:35:57.944Z,5.00
2019-04-26T10:38:27.102Z,5.10
2019-04-26T10:40:55.752Z,5.80
2019-04-26T10:43:24.370Z,4.90
2019-04-26T10:45:54.063Z,4.07
2019-04-26T10:48:25.711Z,5.93
2019-04-26T10:50:53.904Z,6.30
2019-04-26T10:53:25.656Z,4.30
2019-04-26T10:56:12.616Z,4.67
2019-04-26T10:58:45.731Z,4.33
2019-04-26T11:01:16.174Z,6.07
2019-04-26T11:03:45.306Z,5.10
2019-04-26T11:06:13.991Z,6.00
2019-04-26T11:08:45.194Z,4.30
2019-04-26T11:11:14.258Z,5.13
2019-04-26T11:13:42.921Z,5.40
2019-04-26T11:16:11.735Z,5.00
2019-04-26T11:18:42.518Z,7.00
2019-04-26T11:21:10.890Z,5.83
2019-04-26T11:23:45.011Z,3.77
2019-04-26T11:26:11.472Z,5.10
2019-04-26T11:28:42.005Z,4.60
2019-04-26T11:31:10.639Z,4.70
2019-04-26T11:33:44.681Z,4.00
2019-04-26T11:36:09.771Z,4.77
2019-04-26T11:38:39.109Z,4.50
2019-04-26T11:41:07.972Z,6.60
2019-04-26T11:43:38.817Z,4.53
2019-04-26T11:46:07.079Z,5.93
2019-04-26T11:48:35.890Z,3.80
2019-04-26T11:51:04.540Z,5.07
2019-04-26T11:53:33.653Z,6.10
2019-04-26T11:56:04.436Z,4.80
2019-04-26T11:58:33.037Z,4.13
2019-04-26T12:01:03.250Z,3.30
2019-04-26T12:03:31.983Z,4.00
2019-04-26T12:06:02.234Z,4.07
2019-04-26T12:08:32.407Z,4.93
2019-04-26T12:11:01.089Z,4.97
2019-04-26T12:13:30.580Z,6.23
2019-04-26T12:15:59.299Z,3.80
2019-04-26T12:18:28.060Z,4.67
2019-04-26T12:20:57.128Z,5.00
2019-04-26T12:23:27.187Z,3.70
2019-04-26T12:25:56.713Z,4.80
2019-04-26T12:28:25.760Z,4.93
2019-04-26T12:30:58.627Z,3.87
2019-04-26T12:33:25.150Z,3.60
2019-04-26T12:35:57.205Z,3.73
2019-04-26T12:38:28.353Z,3.90
2019-04-26T12:40:54.967Z,2.67
2019-04-26T12:43:24.566Z,3.73
2019-04-26T12:45:55.563Z,4.23
2019-04-26T12:48:26.045Z,4.40
2019-04-26T12:50:54.782Z,4.63
2019-04-26T12:53:26.760Z,5.40
2019-04-26T12:55:58.126Z,5.60
2019-04-26T12:58:24.273Z,4.00
2019-04-26T13:00:54.525Z,5.53
2019-04-26T13:03:24.863Z,4.27
2019-04-26T13:05:58.235Z,4.47
2019-04-26T13:08:24.429Z,4.60
2019-04-26T13:11:00.758Z,3.50
2019-04-26T13:13:33.882Z,3.30
2019-04-26T13:16:21.544Z,4.03
2019-04-26T13:18:50.732Z,3.90
2019-04-26T13:21:19.357Z,4.27
2019-04-26T13:23:49.094Z,3.57
2019-04-26T13:26:17.816Z,2.90
2019-04-26T13:28:46.506Z,3.27
2019-04-26T13:31:15.228Z,3.23
2019-04-26T13:33:45.437Z,3.20
2019-04-26T13:36:14.531Z,3.70
2019-04-26T13:38:45.065Z,6.03
2019-04-26T13:41:13.957Z,3.53
2019-04-26T13:43:44.816Z,3.30
2019-04-26T13:46:24.215Z,3.93
2019-04-26T13:48:57.914Z,2.80
2019-04-26T13:51:28.234Z,3.03
2019-04-26T13:53:56.943Z,4.00
2019-04-26T13:56:25.591Z,5.20
2019-04-26T13:58:58.161Z,3.50
2019-04-26T14:01:24.897Z,4.73
2019-04-26T14:03:54.473Z,4.90
2019-04-26T14:06:23.351Z,5.00
2019-04-26T14:08:53.986Z,4.07
2019-04-26T14:11:28.026Z,4.37
2019-04-26T14:13:55.403Z,4.67
2019-04-26T14:16:23.762Z,6.40
2019-04-26T14:18:53.617Z,4.67
2019-04-26T14:21:22.411Z,4.43
2019-04-26T14:23:58.367Z,3.80
2019-04-26T14:26:28.706Z,4.40
2019-04-26T14:28:59.445Z,3.87
2019-04-26T14:31:28.933Z,4.53
2019-04-26T14:34:01.309Z,3.90
2019-04-26T14:36:29.997Z,6.07
2019-04-26T14:39:06.103Z,4.93
2019-04-26T14:41:31.591Z,5.03
2019-04-26T14:44:14.457Z,4.40
2019-04-26T14:46:31.332Z,4.83
2019-04-26T14:49:03.958Z,4.40
2019-04-26T14:51:30.325Z,4.63
2019-04-26T14:53:59.068Z,4.83
2019-04-26T14:56:29.425Z,3.70
2019-04-26T14:59:01.714Z,4.13
2019-04-26T15:01:36.930Z,4.40
2019-04-26T15:04:23.262Z,5.40
2019-04-26T15:06:58.113Z,3.30
2019-04-26T15:09:33.253Z,4.13
2019-04-26T15:12:00.916Z,3.40
2019-04-26T15:14:24.769Z,2.53
2019-04-26T15:16:54.689Z,2.10
2019-04-26T15:19:23.364Z,2.30
2019-04-26T15:21:53.004Z,2.10
2019-04-26T15:24:22.645Z,1.73
2019-04-26T15:26:51.667Z,2.40
2019-04-26T15:29:26.840Z,1.90
2019-04-26T15:31:53.634Z,2.10
2019-04-26T15:34:26.608Z,2.90
2019-04-26T15:36:54.370Z,3.80
2019-04-26T15:39:25.204Z,2.40
2019-04-26T15:42:10.973Z,1.77
2019-04-26T15:45:01.924Z,2.80
2019-04-26T15:47:42.266Z,2.73
2019-04-26T15:50:13.437Z,2.57
2019-04-26T15:52:43.774Z,1.97
2019-04-26T15:55:13.379Z,2.93
2019-04-26T15:57:44.862Z,4.13
2019-04-26T16:00:14.372Z,2.77
2019-04-26T16:02:43.021Z,2.20
2019-04-26T16:05:13.442Z,2.40
2019-04-26T16:07:42.986Z,2.20
2019-04-26T16:10:14.188Z,2.17
2019-04-26T16:12:44.405Z,1.90
2019-04-26T16:15:14.881Z,2.00
2019-04-26T16:17:43.580Z,2.70
2019-04-26T16:20:13.639Z,2.77
2019-04-26T16:22:43.043Z,3.10
2019-04-26T16:25:12.776Z,3.17
2019-04-26T16:27:43.111Z,2.60
2019-04-26T16:30:17.843Z,2.63
2019-04-26T16:32:58.932Z,2.90
2019-04-26T16:35:28.608Z,3.07
2019-04-26T16:38:00.151Z,3.20
2019-04-26T16:40:28.958Z,2.63
2019-04-26T16:42:59.787Z,2.00
2019-04-26T16:45:28.687Z,2.30
2019-04-26T16:47:57.512Z,2.20
2019-04-26T16:50:31.440Z,2.27
2019-04-26T16:52:56.707Z,1.73
2019-04-26T16:55:25.398Z,2.50
2019-04-26T16:57:58.045Z,2.37
2019-04-26T17:00:47.225Z,2.33
2019-04-26T17:03:02.715Z,1.70
2019-04-26T17:05:45.443Z,1.40
2019-04-26T17:07:58.846Z,2.27
2019-04-26T17:10:27.057Z,2.70
2019-04-26T17:12:55.891Z,1.53
2019-04-26T17:15:24.681Z,1.50
2019-04-26T17:17:54.060Z,2.07
2019-04-26T17:20:23.290Z,1.63
2019-04-26T17:22:59.401Z,1.30
2019-04-26T17:25:32.637Z,1.50
2019-04-26T17:28:03.306Z,1.00
2019-04-26T17:30:40.829Z,1.27
2019-04-26T17:33:05.850Z,1.90
2019-04-26T17:35:36.619Z,1.20
2019-04-26T17:38:06.141Z,0.90
2019-04-26T17:40:39.182Z,0.90
2019-04-26T17:43:09.705Z,1.03
2019-04-26T17:45:40.832Z,1.07
2019-04-26T17:48:12.860Z,0.83
2019-04-26T17:50:42.371Z,0.80
2019-04-26T17:53:16.142Z,0.50
2019-04-26T17:55:45.849Z,0.60
2019-04-26T17:58:17.820Z,0.50
2019-04-26T18:00:47.617Z,0.60
2019-04-26T18:03:17.047Z,0.50
2019-04-26T18:05:56.704Z,0.33
2019-04-26T18:08:36.047Z,0.60
2019-04-26T18:10:49.188Z,0.57
2019-04-26T18:13:21.400Z,0.60
2019-04-26T18:15:50.050Z,0.47
2019-04-26T18:18:23.355Z,0.60
2019-04-26T18:21:13.008Z,0.60
2019-04-26T18:23:40.337Z,0.40
2019-04-26T18:26:09.567Z,0.50
2019-04-26T18:28:40.128Z,0.70
2019-04-26T18:31:14.557Z,0.90
2019-04-26T18:33:42.574Z,1.80
2019-04-26T18:36:14.553Z,3.87
2019-04-26T18:38:48.490Z,6.07
2019-04-26T18:41:15.760Z,3.60
2019-04-26T18:43:46.392Z,1.57
2019-04-26T18:46:20.407Z,1.77
2019-04-26T18:48:49.548Z,3.30
2019-04-26T18:51:18.651Z,1.13
2019-04-26T18:53:53.197Z,0.40
2019-04-26T18:56:23.960Z,0.67
2019-04-26T18:58:55.669Z,0.40
2019-04-26T19:01:24.482Z,0.30
2019-04-26T19:03:54.146Z,0.20
2019-04-26T19:06:29.688Z,0.20
2019-04-26T19:08:57.637Z,0.20
2019-04-26T19:11:25.086Z,0.20
2019-04-26T19:14:12.984Z,0.30
2019-04-26T19:16:40.700Z,0.30
2019-04-26T19:19:22.792Z,0.20
2019-04-26T19:21:52.636Z,0.20
2019-04-26T19:24:23.059Z,0.30
2019-04-26T19:26:53.404Z,0.20
2019-04-26T19:29:31.314Z,0.20
2019-04-26T19:31:56.588Z,0.20
2019-04-26T19:34:26.093Z,0.20
2019-04-26T19:36:59.713Z,0.30
2019-04-26T19:39:32.254Z,0.50
2019-04-26T19:41:58.668Z,0.20
2019-04-26T19:44:28.423Z,7.20
2019-04-26T19:47:13.970Z,4.67
2019-04-26T19:49:44.176Z,1.80
2019-04-26T19:52:24.645Z,2.87
2019-04-26T19:55:12.283Z,2.00
2019-04-26T19:58:01.996Z,4.20
2019-04-26T20:00:32.214Z,0.57
2019-04-26T20:03:01.921Z,0.20
2019-04-26T20:05:32.065Z,0.30
2019-04-26T20:08:02.934Z,0.73
2019-04-26T20:10:40.205Z,0.83
2019-04-26T20:13:07.517Z,0.30
2019-04-26T20:15:36.574Z,0.40
2019-04-26T20:18:05.805Z,0.20
2019-04-26T20:20:36.263Z,0.73
2019-04-26T20:23:07.801Z,2.17
2019-04-26T20:25:36.150Z,11.07
2019-04-26T20:28:06.584Z,0.50
2019-04-26T20:30:46.060Z,0.60
2019-04-26T20:33:15.807Z,1.10
2019-04-26T20:35:45.017Z,0.50
2019-04-26T20:38:13.802Z,0.30
2019-04-26T20:40:43.442Z,0.47
2019-04-26T20:43:23.786Z,0.30
2019-04-26T20:46:07.996Z,0.33
2019-04-26T20:48:16.755Z,0.20
2019-04-26T20:50:45.872Z,0.20
2019-04-26T20:53:15.180Z,0.30
2019-04-26T20:55:43.847Z,0.30
2019-04-26T20:58:13.611Z,0.20
2019-04-26T21:00:53.769Z,0.40
2019-04-26T21:03:22.735Z,0.20
2019-04-26T21:05:46.422Z,0.20
2019-04-26T21:08:14.319Z,0.20
2019-04-26T21:10:43.006Z,0.40
2019-04-26T21:13:12.197Z,0.20
2019-04-26T21:15:53.493Z,0.30
2019-04-26T21:18:12.510Z,0.20
2019-04-26T21:20:42.521Z,0.73
2019-04-26T21:23:13.231Z,0.33
2019-04-26T21:26:02.784Z,0.50
2019-04-26T21:28:38.057Z,0.30
2019-04-26T21:31:09.110Z,0.27
2019-04-26T21:33:48.601Z,0.93
2019-04-26T21:36:36.329Z,0.33
2019-04-26T21:39:07.313Z,0.40
2019-04-26T21:41:40.329Z,0.40
2019-04-26T21:44:12.279Z,0.30
2019-04-26T21:46:39.340Z,0.30
2019-04-26T21:49:08.160Z,0.20
2019-04-26T21:51:36.958Z,0.30
2019-04-26T21:54:05.635Z,0.40
2019-04-26T21:56:34.418Z,0.20
2019-04-26T21:59:05.055Z,0.30
2019-04-26T22:01:34.453Z,0.37
2019-04-26T22:04:03.195Z,0.20
2019-04-26T22:06:33.473Z,0.37
2019-04-26T22:09:07.139Z,0.20
2019-04-26T22:11:35.847Z,0.30
2019-04-26T22:14:06.499Z,0.30
2019-04-26T22:16:53.381Z,0.20
2019-04-26T22:19:32.473Z,0.30
2019-04-26T22:22:07.923Z,0.20
2019-04-26T22:24:44.117Z,0.53
2019-04-26T22:27:13.373Z,0.30
2019-04-26T22:29:43.648Z,0.20
2019-04-26T22:32:17.760Z,0.40
2019-04-26T22:34:46.353Z,0.30
2019-04-26T22:37:28.800Z,0.40
2019-04-26T22:39:46.704Z,0.20
2019-04-26T22:42:16.102Z,0.20
2019-04-26T22:44:53.917Z,0.20
2019-04-26T22:47:40.887Z,0.27
2019-04-26T22:50:07.251Z,0.40
2019-04-26T22:52:35.936Z,0.40
2019-04-26T22:55:07.023Z,0.20
2019-04-26T22:57:35.976Z,0.20
2019-04-26T23:00:05.554Z,0.20
2019-04-26T23:02:34.265Z,0.33
2019-04-26T23:05:05.974Z,0.30
2019-04-26T23:07:35.124Z,0.30
2019-04-26T23:10:05.758Z,0.30
2019-04-26T23:12:36.887Z,0.40
2019-04-26T23:15:30.071Z,0.40
2019-04-26T23:18:03.639Z,0.27
2019-04-26T23:20:50.941Z,0.30
2019-04-26T23:23:19.877Z,0.30
2019-04-26T23:25:49.179Z,0.23
2019-04-26T23:28:18.000Z,0.27
2019-04-26T23:30:46.995Z,0.30
2019-04-26T23:33:15.705Z,0.30
2019-04-26T23:35:47.571Z,0.20
2019-04-26T23:38:15.479Z,0.23
2019-04-26T23:40:44.164Z,0.30
2019-04-26T23:43:13.047Z,0.20
2019-04-26T23:45:48.317Z,0.20
2019-04-26T23:48:13.371Z,0.30
2019-04-26T23:50:43.031Z,0.30
2019-04-26T23:53:11.794Z,1.33
2019-04-26T23:55:42.543Z,0.20
2019-04-26T23:58:13.837Z,0.30
